Time;durP1;ratioP1;P1;durP2;ratioP2;P2;SDS_P1;SDS_P2;PMS_P1;PMS_P2;Temp;Humidity;BMP_temperature;BMP_pressure;BME280_temperature;BME280_humidity;BME280_pressure;Samples;Min_cycle;Max_cycle;Signal;HPM_P1;HPM_P2
2022/11/04 00:02:14;;;;;;;46.05;18.17;;;;;;;5.36;67.84;101558.77;1763593;81;25762;-62
2022/11/04 00:04:41;;;;;;;42.67;18.55;;;;;;;5.40;67.69;101555.01;1740183;81;25452;-62
2022/11/04 00:08:22;;;;;;;35.73;18.70;;;;;;;5.40;67.60;101552.34;1739796;81;25812;-62
2022/11/04 00:09:37;;;;;;;39.55;17.65;;;;;;;5.38;67.47;101547.55;1737984;82;25473;-62
2022/11/04 00:14:50;;;;;;;36.70;17.92;;;;;;;5.35;67.03;101541.92;1754501;81;25498;-62
2022/11/04 00:17:25;;;;;;;38.55;20.17;;;;;;;5.31;66.75;101527.88;1757547;81;26299;-61
2022/11/04 00:33:52;;;;;;;38.90;18.77;;;;;;;4.89;66.17;101518.55;1739518;82;25854;-61
2022/11/04 00:36:20;;;;;;;51.45;19.30;;;;;;;4.83;66.15;101518.88;1764610;79;25740;-62
2022/11/04 00:38:47;;;;;;;41.02;20.17;;;;;;;4.74;66.11;101507.37;1758205;79;27429;-61
2022/11/04 00:41:26;;;;;;;39.45;19.87;;;;;;;4.67;66.20;101506.82;1737317;82;25696;-62
2022/11/04 00:44:04;;;;;;;47.17;19.48;;;;;;;4.57;66.38;101505.11;1737344;82;25724;-61
2022/11/04 00:46:32;;;;;;;43.05;21.23;;;;;;;4.47;66.36;101494.08;1766873;79;25803;-62
2022/11/04 00:49:00;;;;;;;40.33;19.15;;;;;;;4.41;66.55;101497.52;1799418;79;25758;-62
2022/11/04 00:51:27;;;;;;;45.45;19.77;;;;;;;4.37;66.53;101495.00;1799531;79;28273;-62
2022/11/04 00:53:56;;;;;;;42.80;17.73;;;;;;;4.33;66.63;101497.91;1799153;79;25797;-61
2022/11/04 00:56:23;;;;;;;40.83;18.50;;;;;;;4.31;66.86;101486.00;1799138;79;25734;-61
2022/11/04 00:58:51;;;;;;;39.58;19.37;;;;;;;4.32;66.87;101490.39;1799380;79;26840;-62
2022/11/04 01:01:18;;;;;;;39.63;18.52;;;;;;;4.32;66.89;101487.73;1799498;79;25765;-62
2022/11/04 01:03:48;;;;;;;38.48;18.25;;;;;;;4.30;67.07;101486.09;1775757;79;27526;-61
2022/11/04 01:06:17;;;;;;;41.30;16.32;;;;;;;4.28;67.19;101487.48;1760896;81;25803;-62
2022/11/04 01:08:45;;;;;;;39.88;17.35;;;;;;;4.27;67.17;101484.42;1742695;79;25674;-62
2022/11/04 01:11:12;;;;;;;39.03;19.10;;;;;;;4.27;67.44;101485.75;1739685;81;25947;-61
2022/11/04 01:13:40;;;;;;;39.80;17.02;;;;;;;4.29;67.60;101478.55;1738727;80;25748;-62
2022/11/04 01:16:11;;;;;;;38.30;16.40;;;;;;;4.28;67.91;101468.84;1759507;79;27445;-61
2022/11/04 01:18:40;;;;;;;44.23;16.27;;;;;;;4.29;68.08;101475.89;1798802;79;25782;-62
2022/11/04 01:21:10;;;;;;;40.58;16.85;;;;;;;4.30;68.21;101469.62;1799007;79;25769;-62
2022/11/04 01:23:39;;;;;;;35.40;17.62;;;;;;;4.32;68.39;101470.87;1796799;79;25842;-62
2022/11/04 01:26:19;;;;;;;39.80;17.55;;;;;;;4.34;68.88;101467.66;1777733;79;25958;-62
2022/11/04 01:28:46;;;;;;;46.88;16.25;;;;;;;4.39;69.02;101466.98;1703798;83;27346;-62
2022/11/04 01:31:23;;;;;;;39.78;16.20;;;;;;;4.46;68.90;101463.50;1737098;82;25747;-62
2022/11/04 01:33:52;;;;;;;41.83;17.70;;;;;;;4.46;69.00;101463.05;1737288;82;25786;-62
2022/11/04 01:36:19;;;;;;;35.58;16.50;;;;;;;4.49;69.12;101463.35;1737214;82;25924;-62
2022/11/04 01:38:46;;;;;;;42.88;16.25;;;;;;;4.51;68.99;101458.81;1737779;81;26012;-62
2022/11/04 01:41:21;;;;;;;36.35;15.93;;;;;;;4.54;69.00;101455.97;1738459;82;27291;-62
2022/11/04 01:44:01;;;;;;;40.25;16.80;;;;;;;4.57;69.10;101459.81;1736346;82;26360;-62
2022/11/04 01:46:35;;;;;;;34.67;15.75;;;;;;;4.61;69.04;101459.17;1737052;82;25707;-62
2022/11/04 01:49:13;;;;;;;40.33;17.00;;;;;;;4.63;68.89;101453.30;1737270;82;26440;-62
2022/11/04 01:51:43;;;;;;;29.72;15.58;;;;;;;4.67;68.95;101443.73;1738110;79;25786;-62
2022/11/04 01:54:11;;;;;;;36.20;16.95;;;;;;;4.72;69.00;101440.83;1737453;81;28459;-62
2022/11/04 01:56:41;;;;;;;38.48;17.62;;;;;;;4.76;68.83;101442.36;1736950;80;26001;-62
2022/11/04 01:59:13;;;;;;;41.10;16.80;;;;;;;4.76;68.63;101442.85;1737535;82;25801;-62
2022/11/04 02:01:42;;;;;;;42.58;17.35;;;;;;;4.72;68.40;101438.61;1738029;82;25945;-62
2022/11/04 02:04:24;;;;;;;40.75;18.27;;;;;;;4.68;68.13;101436.13;1756318;79;25766;-62
2022/11/04 02:07:01;;;;;;;41.45;17.00;;;;;;;4.62;67.94;101436.44;1744948;81;27466;-62
2022/11/04 02:09:30;;;;;;;36.20;17.85;;;;;;;4.54;67.76;101439.98;1743131;79;25864;-62
2022/11/04 02:14:44;;;;;;;38.90;18.30;;;;;;;4.33;67.67;101444.17;1737012;81;25843;-62
2022/11/04 02:17:34;;;;;;;35.55;18.35;;;;;;;4.19;67.93;101451.54;1786023;79;26176;-62
2022/11/04 02:20:24;;;;;;;41.75;20.15;;;;;;;4.07;68.22;101450.36;1798879;79;27812;-62
2022/11/04 02:23:41;;;;;;;37.85;17.30;;;;;;;4.04;68.48;101446.97;1798941;79;25763;-62
2022/11/04 02:26:39;;;;;;;47.48;17.12;;;;;;;4.02;68.31;101447.53;1799368;79;25523;-62
2022/11/04 02:29:41;;;;;;;36.38;19.40;;;;;;;3.96;68.29;101456.69;1799363;79;26550;-62
2022/11/04 02:32:47;;;;;;;43.02;18.85;;;;;;;3.91;68.11;101464.02;1737362;81;26086;-62
2022/11/04 02:35:31;;;;;;;37.23;17.27;;;;;;;3.86;68.25;101453.60;1789874;79;27693;-62
2022/11/04 02:38:31;;;;;;;35.05;18.55;;;;;;;3.82;68.29;101453.83;1799415;79;25679;-62
2022/11/04 02:41:37;;;;;;;45.92;17.48;;;;;;;3.77;68.55;101450.06;1796598;79;25814;-62
2022/11/04 02:44:33;;;;;;;37.10;16.62;;;;;;;3.72;68.65;101452.10;1768318;79;25792;-62
2022/11/04 02:47:08;;;;;;;38.08;17.55;;;;;;;3.65;68.56;101460.00;1799257;79;25702;-62
2022/11/04 02:50:01;;;;;;;35.78;17.23;;;;;;;3.58;68.72;101456.31;1797476;79;28612;-62
2022/11/04 02:52:36;;;;;;;33.98;15.38;;;;;;;3.57;69.28;101453.25;1797777;79;25785;-62
2022/11/04 02:55:08;;;;;;;40.30;16.07;;;;;;;3.54;69.66;101444.56;1798649;79;25844;-62
2022/11/04 02:57:39;;;;;;;37.40;16.48;;;;;;;3.47;69.72;101444.44;1796542;79;25770;-62
2022/11/04 03:00:10;;;;;;;35.15;15.03;;;;;;;3.45;69.96;101441.38;1799625;79;26405;-62
2022/11/04 03:02:46;;;;;;;32.88;16.37;;;;;;;3.48;70.11;101449.70;1787937;79;27639;-62
2022/11/04 03:05:17;;;;;;;34.05;16.00;;;;;;;3.50;69.94;101438.98;1725625;79;25738;-62
2022/11/04 03:07:48;;;;;;;40.33;15.20;;;;;;;3.53;70.13;101441.50;1741531;79;25769;-62
2022/11/04 03:10:32;;;;;;;34.63;15.78;;;;;;;3.54;70.12;101437.43;1798449;79;26650;-62
2022/11/04 03:13:06;;;;;;;32.58;15.68;;;;;;;3.56;69.93;101433.35;1799097;79;25716;-63
2022/11/04 03:15:36;;;;;;;31.40;15.35;;;;;;;3.59;70.03;101434.06;1741558;80;27103;-62
2022/11/04 03:18:20;;;;;;;35.88;16.30;;;;;;;3.62;70.01;101437.06;1761312;80;25506;-62
2022/11/04 03:20:50;;;;;;;29.55;14.80;;;;;;;3.66;70.02;101428.47;1760912;81;25775;-61
2022/11/04 03:23:17;;;;;;;37.45;16.32;;;;;;;3.69;70.02;101424.30;1760952;80;26630;-62
2022/11/04 03:25:48;;;;;;;36.25;14.58;;;;;;;3.68;69.94;101418.12;1761151;81;25756;-63
2022/11/04 03:28:26;;;;;;;37.98;16.90;;;;;;;3.73;69.99;101409.92;1735426;81;27624;-62
2022/11/04 03:30:58;;;;;;;34.90;14.85;;;;;;;3.77;69.92;101404.81;1726048;81;25758;-62
2022/11/04 03:33:42;;;;;;;32.33;17.15;;;;;;;3.78;69.66;101405.22;1761060;81;25454;-61
2022/11/04 03:36:09;;;;;;;34.53;15.83;;;;;;;3.78;69.51;101408.36;1753286;80;26654;-63
2022/11/04 03:38:37;;;;;;;36.83;18.30;;;;;;;3.77;69.39;101407.48;1701572;83;25982;-62
2022/11/04 03:41:18;;;;;;;36.70;16.23;;;;;;;3.73;69.10;101404.59;1701590;84;28269;-62
2022/11/04 03:43:45;;;;;;;39.15;17.48;;;;;;;3.69;68.89;101399.90;1700852;84;25908;-61
2022/11/04 03:46:12;;;;;;;35.10;17.98;;;;;;;3.62;68.82;101400.27;1731074;81;25722;-62
2022/11/04 03:48:40;;;;;;;33.10;16.85;;;;;;;3.56;68.72;101402.30;1740146;82;26749;-62
2022/11/04 03:51:08;;;;;;;41.08;19.10;;;;;;;3.51;68.56;101403.47;1717938;82;25830;-62
2022/11/04 03:53:35;;;;;;;44.70;18.62;;;;;;;3.44;68.65;101405.11;1741309;81;27644;-62
2022/11/04 03:56:29;;;;;;;44.50;19.57;;;;;;;3.38;68.56;101400.54;1761147;80;25787;-61
2022/11/04 03:59:07;;;;;;;37.13;17.55;;;;;;;3.33;68.52;101402.54;1761222;81;25715;-62
2022/11/04 04:01:43;;;;;;;30.62;16.45;;;;;;;3.25;68.54;101398.46;1760103;80;25810;-63
2022/11/04 04:04:24;;;;;;;41.45;17.30;;;;;;;3.19;68.49;101396.55;1737402;81;25495;-63
2022/11/04 04:06:56;;;;;;;38.67;17.55;;;;;;;3.14;68.59;101396.77;1730640;82;28295;-63
2022/11/04 04:09:37;;;;;;;39.70;17.30;;;;;;;3.11;68.60;101392.47;1730279;82;27289;-63
2022/11/04 04:12:34;;;;;;;45.35;16.42;;;;;;;3.07;68.66;101392.69;1729294;81;25700;-63
2022/11/04 04:15:16;;;;;;;39.95;19.42;;;;;;;3.04;68.76;101388.86;1753460;80;25778;-63
2022/11/04 04:17:48;;;;;;;43.60;18.65;;;;;;;3.00;68.86;101388.59;1776101;80;25781;-67
2022/11/04 04:20:19;;;;;;;34.65;16.07;;;;;;;3.01;69.12;101391.17;1763850;79;27430;-63
2022/11/04 04:22:53;;;;;;;48.08;18.30;;;;;;;3.02;69.19;101396.89;1744536;82;25736;-63
2022/11/04 04:28:14;;;;;;;41.50;16.97;;;;;;;3.05;69.32;101398.08;1750000;79;25869;-63
2022/11/04 04:30:43;;;;;;;35.48;16.07;;;;;;;3.08;69.34;101393.08;1807080;79;25761;-63
2022/11/04 04:33:15;;;;;;;45.05;16.90;;;;;;;3.10;69.28;101390.73;1804949;79;27633;-63
2022/11/04 04:35:50;;;;;;;45.30;16.07;;;;;;;3.16;69.34;101394.06;1807032;79;27253;-64
2022/11/04 04:47:24;;;;;;;60.30;18.32;;;;;;;3.22;69.15;101380.47;1678715;85;27466;-62
2022/11/04 04:49:59;;;;;;;46.95;18.92;;;;;;;3.23;69.15;101380.86;1740008;80;25843;-62
2022/11/04 04:52:32;;;;;;;40.58;17.23;;;;;;;3.20;68.92;101391.63;1776684;80;25833;-62
2022/11/04 04:54:59;;;;;;;45.03;18.07;;;;;;;3.18;68.78;101388.20;1760749;79;25759;-62
2022/11/04 04:57:26;;;;;;;47.45;17.05;;;;;;;3.13;68.70;101395.92;1745773;82;25450;-63
2022/11/04 04:59:53;;;;;;;41.13;17.95;;;;;;;3.08;68.45;101390.42;1744711;82;29568;-62
2022/11/04 05:02:20;;;;;;;51.68;18.50;;;;;;;3.04;68.43;101383.06;1746364;80;25470;-62
2022/11/04 05:04:47;;;;;;;50.52;19.05;;;;;;;2.98;68.38;101388.20;1771286;80;26528;-61
2022/11/04 05:07:14;;;;;;;51.77;19.40;;;;;;;2.91;68.31;101388.09;1771360;80;25938;-62
2022/11/04 05:09:41;;;;;;;48.28;18.12;;;;;;;2.88;68.21;101392.70;1771288;80;25783;-62
2022/11/04 05:12:08;;;;;;;45.10;17.25;;;;;;;2.82;68.38;101396.02;1771477;80;28360;-63
2022/11/04 05:14:36;;;;;;;43.38;18.05;;;;;;;2.81;68.43;101394.31;1768944;80;25858;-62
2022/11/04 05:17:04;;;;;;;50.05;18.62;;;;;;;2.81;68.52;101399.63;1760725;80;25784;-62
2022/11/04 05:19:30;;;;;;;79.82;21.60;;;;;;;2.83;68.69;101395.56;1760768;80;25901;-62
2022/11/04 05:22:00;;;;;;;63.98;18.77;;;;;;;2.86;68.86;101400.75;1760784;80;25810;-63
2022/11/04 05:24:26;;;;;;;48.73;16.30;;;;;;;2.90;69.11;101398.81;1735266;81;27480;-62
2022/11/04 05:26:53;;;;;;;51.75;16.73;;;;;;;2.97;69.26;101405.55;1734387;82;25709;-62
2022/11/04 05:29:20;;;;;;;60.95;17.80;;;;;;;3.00;69.26;101398.78;1735377;82;25877;-62
2022/11/04 05:31:47;;;;;;;42.70;17.02;;;;;;;3.05;69.36;101397.23;1734674;82;25757;-62
2022/11/04 05:34:14;;;;;;;64.35;18.40;;;;;;;3.12;69.59;101398.67;1736007;81;25732;-62
2022/11/04 05:36:41;;;;;;;48.48;17.32;;;;;;;3.22;69.79;101395.09;1738009;81;28346;-62
2022/11/04 05:39:12;;;;;;;52.00;18.12;;;;;;;3.31;69.87;101397.31;1765553;81;25692;-62
2022/11/04 05:41:38;;;;;;;42.55;19.40;;;;;;;3.42;69.82;101401.65;1765667;81;25815;-62
2022/11/04 05:44:07;;;;;;;56.40;20.60;;;;;;;3.50;69.79;101403.91;1764949;81;25719;-62
2022/11/04 05:46:33;;;;;;;45.30;18.80;;;;;;;3.56;69.80;101408.08;1765258;81;25830;-62
2022/11/04 05:49:00;;;;;;;48.45;19.48;;;;;;;3.61;69.75;101407.41;1765141;81;28142;-62
2022/11/04 05:51:28;;;;;;;51.90;19.20;;;;;;;3.64;69.53;101407.23;1765700;80;25806;-63
2022/11/04 05:53:55;;;;;;;45.08;20.17;;;;;;;3.72;69.63;101401.54;1760053;81;25691;-63
2022/11/04 05:56:21;;;;;;;41.48;19.48;;;;;;;3.74;69.47;101403.18;1752927;81;25778;-62
2022/11/04 05:58:48;;;;;;;47.10;17.87;;;;;;;3.77;69.39;101396.84;1752585;81;25612;-62
2022/11/04 06:01:29;;;;;;;39.75;19.00;;;;;;;3.82;69.40;101397.94;1755679;80;27430;-63
2022/11/04 06:03:58;;;;;;;46.92;19.07;;;;;;;3.86;69.34;101399.52;1754409;80;25883;-63
2022/11/04 06:06:28;;;;;;;65.52;19.98;;;;;;;3.88;69.31;101395.84;1750853;80;25816;-62
2022/11/04 06:08:56;;;;;;;38.98;17.92;;;;;;;3.95;69.18;101397.72;1751879;79;25828;-63
2022/11/04 06:11:26;;;;;;;43.48;18.23;;;;;;;3.96;69.25;101397.23;1757755;79;25790;-62
2022/11/04 06:13:55;;;;;;;43.85;17.92;;;;;;;3.98;69.17;101409.56;1753845;81;27471;-62
2022/11/04 06:16:23;;;;;;;47.30;18.55;;;;;;;3.99;69.11;101400.61;1757547;80;25790;-62
2022/11/04 06:18:50;;;;;;;51.35;20.72;;;;;;;4.01;68.92;101401.88;1762020;80;25692;-62
2022/11/04 06:21:24;;;;;;;50.48;18.35;;;;;;;4.02;69.14;101400.46;1762582;81;26518;-63
2022/11/04 06:23:55;;;;;;;45.52;18.60;;;;;;;4.07;69.21;101403.77;1753926;81;25473;-62
2022/11/04 06:26:25;;;;;;;38.48;18.30;;;;;;;4.11;69.37;101401.80;1749451;80;27546;-63
2022/11/04 06:28:52;;;;;;;55.92;20.45;;;;;;;4.16;69.51;101396.24;1761267;81;25724;-62
2022/11/04 06:31:20;;;;;;;46.05;20.55;;;;;;;4.21;69.98;101406.17;1766325;81;25681;-62
2022/11/04 06:33:47;;;;;;;42.53;20.90;;;;;;;4.27;69.92;101397.86;1771019;80;26018;-62
2022/11/04 06:36:16;;;;;;;53.15;19.85;;;;;;;4.33;69.85;101386.91;1769084;80;25844;-63
2022/11/04 06:38:43;;;;;;;66.02;23.62;;;;;;;4.44;70.01;101385.00;1761997;80;28133;-62
2022/11/04 06:41:14;;;;;;;48.28;20.27;;;;;;;4.58;70.21;101385.59;1761699;80;25747;-63
2022/11/04 06:43:41;;;;;;;46.73;19.65;;;;;;;4.71;70.39;101377.80;1762045;80;25794;-62
2022/11/04 06:46:38;;;;;;;44.30;17.52;;;;;;;4.85;70.55;101365.89;1763496;81;25888;-62
2022/11/04 06:49:08;;;;;;;45.30;18.75;;;;;;;5.02;71.32;101365.42;1751425;80;25723;-62
2022/11/04 06:51:35;;;;;;;45.05;17.27;;;;;;;5.19;71.22;101357.82;1753830;80;27400;-62
2022/11/04 06:54:02;;;;;;;45.60;16.45;;;;;;;5.37;71.20;101355.05;1758749;80;26638;-62
2022/11/04 06:56:29;;;;;;;40.60;15.05;;;;;;;5.55;71.40;101342.47;1757679;79;25898;-63
2022/11/04 06:58:57;;;;;;;33.83;14.93;;;;;;;5.70;71.64;101344.69;1763880;80;25907;-62
2022/11/04 07:01:28;;;;;;;45.60;15.55;;;;;;;5.86;71.70;101345.98;1766816;80;25940;-63
2022/11/04 07:03:58;;;;;;;47.60;15.60;;;;;;;5.99;71.24;101335.42;1757534;81;27574;-63
2022/11/04 07:06:28;;;;;;;35.70;13.38;;;;;;;6.15;71.28;101336.73;1764509;81;25541;-63
2022/11/04 07:08:59;;;;;;;46.83;13.75;;;;;;;6.32;71.18;101326.35;1771048;80;25814;-63
2022/11/04 07:11:28;;;;;;;48.95;15.75;;;;;;;6.50;71.32;101325.17;1770855;80;26780;-63
2022/11/04 07:13:55;;;;;;;50.78;14.85;;;;;;;6.68;70.88;101322.33;1751182;80;26696;-63
2022/11/04 07:16:21;;;;;;;51.95;14.25;;;;;;;6.87;70.82;101320.66;1749944;79;27630;-63
2022/11/04 07:18:50;;;;;;;43.58;15.60;;;;;;;7.03;70.44;101317.38;1767130;79;25789;-63
2022/11/04 07:21:17;;;;;;;43.33;16.02;;;;;;;7.20;70.11;101318.08;1750610;79;25801;-63
2022/11/04 07:23:44;;;;;;;53.63;16.97;;;;;;;7.34;69.67;101306.00;1755287;80;25827;-63
2022/11/04 07:26:11;;;;;;;37.90;16.07;;;;;;;7.51;69.47;101304.85;1784726;79;25780;-63
2022/11/04 07:28:39;;;;;;;40.03;16.55;;;;;;;7.66;69.11;101302.97;1728822;82;27468;-63
2022/11/04 07:31:08;;;;;;;51.98;16.52;;;;;;;7.80;68.84;101300.69;1704723;81;25716;-63
2022/11/04 07:33:34;;;;;;;49.58;15.35;;;;;;;7.95;68.44;101288.06;1754003;79;25838;-63
2022/11/04 07:36:09;;;;;;;40.73;15.80;;;;;;;8.05;67.94;101291.44;1763595;79;25803;-62
2022/11/04 07:38:36;;;;;;;35.05;14.80;;;;;;;8.18;67.83;101296.80;1792741;79;25833;-63
2022/11/04 07:41:03;;;;;;;32.40;14.53;;;;;;;8.30;67.40;101287.87;1727472;82;27462;-63
2022/11/04 07:43:30;;;;;;;40.67;14.30;;;;;;;8.43;67.14;101288.73;1780011;79;26365;-63
2022/11/04 07:46:11;;;;;;;38.67;15.38;;;;;;;8.58;66.82;101279.23;1752024;79;25769;-63
2022/11/04 07:48:38;;;;;;;42.73;16.52;;;;;;;8.69;65.32;101273.95;1703532;83;26764;-63
2022/11/04 07:51:08;;;;;;;34.83;14.43;;;;;;;8.82;64.66;101270.39;1764527;79;25850;-63
2022/11/04 07:53:35;;;;;;;37.05;15.55;;;;;;;8.89;64.97;101272.48;1748882;79;27418;-63
2022/11/04 07:56:07;;;;;;;37.25;14.03;;;;;;;9.00;64.68;101262.32;1759520;79;25810;-63
2022/11/04 07:58:34;;;;;;;42.62;15.35;;;;;;;9.15;64.40;101260.80;1745461;79;25872;-63
2022/11/04 08:01:05;;;;;;;32.73;13.60;;;;;;;9.27;64.12;101249.14;1761511;79;25793;-63
2022/11/04 08:03:34;;;;;;;41.95;14.40;;;;;;;9.35;63.30;101256.13;1768682;79;25946;-63
2022/11/04 08:06:04;;;;;;;36.58;15.20;;;;;;;9.46;63.49;101257.15;1741168;81;27435;-63
2022/11/04 08:08:31;;;;;;;39.50;15.25;;;;;;;9.64;63.56;101259.73;1713820;83;25905;-63
2022/11/04 08:11:05;;;;;;;32.50;13.70;;;;;;;9.76;63.10;101250.37;1739674;81;25776;-63
2022/11/04 08:13:36;;;;;;;33.95;14.58;;;;;;;10.02;62.75;101253.22;1741890;82;26467;-63
2022/11/04 08:16:08;;;;;;;37.85;16.27;;;;;;;10.20;62.65;101254.58;1742025;81;25956;-64
2022/11/04 08:18:36;;;;;;;35.43;13.13;;;;;;;10.29;61.54;101256.54;1742932;81;27499;-64
2022/11/04 08:21:05;;;;;;;31.75;14.73;;;;;;;10.33;61.48;101244.55;1754461;80;25797;-64
2022/11/04 08:23:33;;;;;;;38.98;14.30;;;;;;;10.53;61.88;101251.53;1772272;80;25734;-64
2022/11/04 08:26:00;;;;;;;36.55;13.85;;;;;;;10.74;61.45;101247.58;1787172;80;25775;-64
2022/11/04 08:28:28;;;;;;;37.25;13.48;;;;;;;10.98;60.60;101239.83;1761291;80;25721;-64
2022/11/04 08:31:01;;;;;;;33.78;13.43;;;;;;;11.26;60.21;101235.17;1742366;82;27553;-64
2022/11/04 08:33:31;;;;;;;35.88;14.47;;;;;;;11.58;58.75;101230.25;1760732;80;26170;-63
2022/11/04 08:36:08;;;;;;;31.07;13.70;;;;;;;11.78;58.66;101224.11;1742333;82;25813;-64
2022/11/04 08:38:36;;;;;;;34.88;14.73;;;;;;;11.98;57.72;101220.57;1759087;80;26697;-64
2022/11/04 08:41:06;;;;;;;32.10;13.58;;;;;;;12.17;56.72;101225.70;1773043;80;25842;-65
2022/11/04 08:43:33;;;;;;;27.77;13.80;;;;;;;12.34;56.08;101219.66;1772176;80;27445;-64
2022/11/04 08:46:03;;;;;;;33.28;13.88;;;;;;;12.70;56.01;101216.97;1773276;80;25790;-64
2022/11/04 08:48:30;;;;;;;36.80;13.65;;;;;;;13.15;54.37;101209.70;1773122;80;26076;-64
2022/11/04 08:50:58;;;;;;;31.87;13.00;;;;;;;13.93;53.56;101210.94;1754088;80;25841;-63
2022/11/04 08:53:25;;;;;;;26.05;12.95;;;;;;;14.65;52.44;101202.20;1742550;82;25915;-63
2022/11/04 08:55:52;;;;;;;34.98;13.48;;;;;;;15.42;50.99;101198.18;1742743;82;27416;-63
2022/11/04 08:58:20;;;;;;;30.35;12.95;;;;;;;16.14;50.26;101193.07;1760364;79;26081;-62
2022/11/04 09:00:47;;;;;;;34.13;14.13;;;;;;;16.84;48.78;101185.13;1744644;80;25761;-63
2022/11/04 09:03:14;;;;;;;34.40;14.60;;;;;;;17.35;47.83;101180.92;1744411;79;25733;-63
2022/11/04 09:05:46;;;;;;;35.25;12.18;;;;;;;17.96;44.86;101176.44;1748305;80;25699;-64
2022/11/04 09:08:16;;;;;;;33.42;13.83;;;;;;;18.37;44.46;101175.42;1757032;80;27611;-63
2022/11/04 09:10:45;;;;;;;30.70;11.85;;;;;;;19.03;45.15;101170.42;1753675;80;25834;-63
2022/11/04 09:13:14;;;;;;;27.62;11.05;;;;;;;19.69;43.05;101160.78;1742465;82;25775;-63
2022/11/04 09:15:42;;;;;;;25.50;11.33;;;;;;;19.94;43.01;101155.06;1739812;82;25854;-63
2022/11/04 09:18:10;;;;;;;25.27;12.15;;;;;;;20.06;40.00;101145.37;1717211;82;25770;-63
2022/11/04 09:20:41;;;;;;;33.55;13.48;;;;;;;19.96;40.08;101137.45;1722431;79;27482;-63
2022/11/04 09:23:08;;;;;;;35.40;12.53;;;;;;;20.23;39.80;101132.86;1746626;79;27254;-63
2022/11/04 09:25:36;;;;;;;26.80;10.15;;;;;;;20.65;39.61;101131.22;1789381;80;25794;-62
2022/11/04 09:28:04;;;;;;;35.05;10.88;;;;;;;20.92;38.97;101128.28;1779263;79;26384;-63
2022/11/04 09:30:32;;;;;;;26.37;10.55;;;;;;;21.07;37.79;101115.86;1741739;82;25757;-63
2022/11/04 09:32:59;;;;;;;37.67;11.50;;;;;;;21.07;37.28;101115.86;1741354;81;27373;-63
2022/11/04 09:35:26;;;;;;;26.87;9.85;;;;;;;20.70;37.31;101108.27;1758130;79;25737;-63
2022/11/04 09:37:54;;;;;;;28.47;10.43;;;;;;;20.56;36.91;101091.39;1795941;79;25683;-63
2022/11/04 09:40:23;;;;;;;24.35;9.95;;;;;;;20.30;36.66;101091.44;1738299;79;25981;-63
2022/11/04 09:43:27;;;;;;;22.90;10.45;;;;;;;20.48;37.13;101091.02;1760911;79;25732;-63
2022/11/04 09:45:55;;;;;;;26.35;9.55;;;;;;;20.92;35.51;101076.32;1798513;79;27462;-63
2022/11/04 09:48:37;;;;;;;30.23;10.40;;;;;;;21.25;36.52;101074.86;1742375;79;25740;-63
2022/11/04 09:51:06;;;;;;;33.18;10.00;;;;;;;21.37;35.81;101075.17;1702720;83;25768;-64
2022/11/04 09:53:49;;;;;;;26.87;10.40;;;;;;;21.36;36.09;101070.74;1737505;81;26051;-62
2022/11/04 09:56:19;;;;;;;;;;;;;;;21.36;36.20;101066.64;1742158;82;25697;-62
2022/11/04 09:58:49;;;;;;;18.77;9.63;;;;;;;21.15;35.57;101062.91;1737834;79;27505;-62
2022/11/04 10:01:26;;;;;;;25.10;9.30;;;;;;;21.12;35.77;101049.63;1766740;79;25768;-62
2022/11/04 10:04:10;;;;;;;35.68;9.33;;;;;;;21.18;35.38;101049.35;1759510;79;25887;-62
2022/11/04 10:07:06;;;;;;;22.77;9.60;;;;;;;21.30;34.28;101038.69;1764910;81;26214;-62
2022/11/04 10:09:57;;;;;;;35.55;10.53;;;;;;;21.26;34.21;101041.84;1761120;79;25790;-62
2022/11/04 10:12:41;;;;;;;27.22;9.40;;;;;;;21.10;34.18;101032.59;1799352;79;27485;-62
2022/11/04 10:15:46;;;;;;;21.12;9.73;;;;;;;21.03;34.57;101028.94;1732695;82;25783;-63
2022/11/04 10:18:49;;;;;;;21.17;8.90;;;;;;;21.44;35.42;101019.95;1798697;79;25745;-62
2022/11/04 10:21:48;;;;;;;21.15;8.23;;;;;;;22.34;33.74;101010.27;1724291;82;25804;-63
2022/11/04 10:24:20;;;;;;;29.37;8.15;;;;;;;23.06;32.50;101007.44;1726419;81;25787;-62
2022/11/04 10:26:56;;;;;;;25.90;8.30;;;;;;;23.06;32.29;101001.44;1767759;80;29550;-62
2022/11/04 10:29:31;;;;;;;27.00;9.10;;;;;;;23.33;32.65;100990.42;1778510;78;25437;-62
2022/11/04 10:32:02;;;;;;;22.93;7.78;;;;;;;23.92;32.88;100991.75;1764957;79;25727;-63
2022/11/04 10:34:56;;;;;;;68.90;9.55;;;;;;;24.75;32.22;100985.80;1747986;80;25847;-63
2022/11/04 10:37:24;;;;;;;;;;;;;;;25.59;31.42;100975.73;1761713;81;25804;-63
2022/11/04 10:40:12;;;;;;;18.77;6.45;;;;;;;26.52;30.57;100974.06;1760127;79;27488;-63
2022/11/04 10:42:40;;;;;;;23.98;6.53;;;;;;;26.96;27.93;100977.89;1736943;82;25791;-63
2022/11/04 10:45:14;;;;;;;17.57;6.67;;;;;;;26.92;27.05;100970.33;1738814;81;25771;-63
2022/11/04 10:48:01;;;;;;;14.47;6.33;;;;;;;27.06;26.74;100968.99;1737463;79;25685;-63
2022/11/04 10:50:55;;;;;;;19.37;7.37;;;;;;;27.14;26.75;100970.55;1739693;81;26414;-63
2022/11/04 10:53:24;;;;;;;;;;;;;;;27.07;26.62;100967.91;1770364;79;27477;-63
2022/11/04 10:56:08;;;;;;;20.92;6.45;;;;;;;26.60;25.95;100963.74;1767835;80;25714;-62
2022/11/04 10:58:41;;;;;;;21.97;6.80;;;;;;;26.01;26.33;100968.03;1753875;79;25703;-62
2022/11/04 11:01:31;;;;;;;;;;;;;;;25.31;27.27;100966.09;1755108;80;25794;-63
2022/11/04 11:03:59;;;;;;;18.10;6.37;;;;;;;25.00;27.36;100957.44;1762958;80;25939;-62
2022/11/04 11:06:33;;;;;;;15.30;5.97;;;;;;;24.87;28.06;100959.80;1765172;81;27429;-62
2022/11/04 11:09:21;;;;;;;21.48;6.85;;;;;;;24.76;28.19;100957.23;1761378;79;25970;-62
2022/11/04 11:11:50;;;;;;;14.47;5.45;;;;;;;24.64;28.55;100960.40;1738707;81;25721;-62
2022/11/04 11:14:36;;;;;;;18.02;5.95;;;;;;;24.65;28.49;100949.16;1712889;82;25836;-62
2022/11/04 11:17:35;;;;;;;15.68;6.33;;;;;;;24.59;29.23;100956.09;1736860;82;25752;-61
2022/11/04 11:20:22;;;;;;;18.10;6.97;;;;;;;24.46;28.91;100959.80;1740267;79;27532;-61
2022/11/04 11:22:50;;;;;;;14.83;5.70;;;;;;;24.12;28.99;100956.47;1750765;80;25728;-62
2022/11/04 11:25:31;;;;;;;21.33;6.15;;;;;;;23.85;29.64;100952.48;1785158;80;25823;-62
2022/11/04 11:28:10;;;;;;;19.55;5.53;;;;;;;24.00;29.78;100951.67;1739365;79;25792;-61
2022/11/04 11:30:48;;;;;;;12.95;6.58;;;;;;;24.12;29.77;100942.19;1737159;82;25483;-62
2022/11/04 11:33:30;;;;;;;19.85;6.97;;;;;;;24.32;29.83;100935.70;1737319;80;28037;-62
2022/11/04 11:36:11;;;;;;;18.17;6.53;;;;;;;24.28;29.29;100937.23;1747298;79;25962;-61
2022/11/04 11:39:00;;;;;;;20.48;6.83;;;;;;;24.19;29.31;100933.90;1738389;81;25798;-61
2022/11/04 11:41:32;;;;;;;16.25;5.97;;;;;;;24.09;29.58;100932.17;1729988;82;26724;-62
2022/11/04 11:44:18;;;;;;;13.45;6.55;;;;;;;24.04;29.52;100927.34;1737217;82;25712;-61
2022/11/04 11:46:55;;;;;;;19.05;5.60;;;;;;;23.90;29.37;100919.17;1756362;79;27622;-62
2022/11/04 11:49:30;;;;;;;13.65;6.03;;;;;;;23.67;29.45;100920.25;1721732;82;25862;-62
2022/11/04 11:52:32;;;;;;;19.37;7.00;;;;;;;23.46;29.87;100909.92;1798469;79;25802;-62
2022/11/04 11:55:06;;;;;;;18.00;6.47;;;;;;;23.35;29.92;100915.58;1733260;82;26288;-62
2022/11/04 11:57:48;;;;;;;22.50;6.10;;;;;;;23.10;30.46;100901.16;1774248;79;25813;-62
2022/11/04 12:00:19;;;;;;;12.40;6.08;;;;;;;23.00;30.53;100896.65;1749223;79;29628;-62
2022/11/04 12:02:54;;;;;;;27.42;6.58;;;;;;;22.87;30.89;100893.42;1784856;79;25692;-61
2022/11/04 12:05:32;;;;;;;15.15;6.22;;;;;;;22.67;31.06;100896.22;1755579;79;25786;-61
2022/11/04 12:08:35;;;;;;;15.68;6.37;;;;;;;22.49;31.33;100885.38;1759738;79;25802;-61
2022/11/04 12:11:15;;;;;;;22.52;6.55;;;;;;;22.34;31.63;100880.09;1762837;80;25760;-61
2022/11/04 12:13:54;;;;;;;15.32;6.33;;;;;;;22.23;31.99;100884.00;1763027;79;27538;-61
2022/11/04 12:16:51;;;;;;;13.08;6.10;;;;;;;22.14;32.00;100882.84;1732097;82;25780;-61
2022/11/04 12:19:40;;;;;;;20.85;6.47;;;;;;;21.98;32.18;100871.76;1652434;85;25791;-61